sensor_id;sensor_type;location;lat;lon;timestamp;pressure;altitude;pressure_sealevel;temperature;humidity
12991;BME280;6560;57.692;11.958;2023-08-07T00:01:17;99525.63;;;30.25;100.00
12991;BME280;6560;57.692;11.958;2023-08-07T00:03:43;99558.84;;;29.56;100.00
12991;BME280;6560;57.692;11.958;2023-08-07T00:06:09;99510.06;;;29.04;100.00
12991;BME280;6560;57.692;11.958;2023-08-07T00:08:37;99522.38;;;29.22;100.00
12991;BME280;6560;57.692;11.958;2023-08-07T00:11:05;99525.91;;;29.27;100.00
12991;BME280;6560;57.692;11.958;2023-08-07T00:13:32;99490.94;;;29.10;100.00
12991;BME280;6560;57.692;11.958;2023-08-07T00:15:59;99503.56;;;29.13;100.00
12991;BME280;6560;57.692;11.958;2023-08-07T00:18:28;99484.97;;;28.41;100.00
12991;BME280;6560;57.692;11.958;2023-08-07T00:21:15;99443.53;;;28.34;100.00
12991;BME280;6560;57.692;11.958;2023-08-07T00:23:43;99434.69;;;29.18;100.00
12991;BME280;6560;57.692;11.958;2023-08-07T00:26:08;99526.22;;;31.41;100.00
12991;BME280;6560;57.692;11.958;2023-08-07T00:28:34;99458.22;;;33.02;92.88
12991;BME280;6560;57.692;11.958;2023-08-07T00:31:00;99469.75;;;33.60;87.92
12991;BME280;6560;57.692;11.958;2023-08-07T00:33:25;99435.59;;;33.72;85.35
12991;BME280;6560;57.692;11.958;2023-08-07T00:35:51;99482.31;;;32.91;87.03
12991;BME280;6560;57.692;11.958;2023-08-07T00:38:16;99466.56;;;33.72;84.05
12991;BME280;6560;57.692;11.958;2023-08-07T00:40:42;99493.78;;;33.98;83.04
12991;BME280;6560;57.692;11.958;2023-08-07T00:43:08;99451.84;;;31.69;97.08
12991;BME280;6560;57.692;11.958;2023-08-07T00:45:45;99482.97;;;33.72;85.23
12991;BME280;6560;57.692;11.958;2023-08-07T00:48:14;99416.38;;;33.02;89.99
12991;BME280;6560;57.692;11.958;2023-08-07T00:50:41;99472.00;;;32.99;94.45
12991;BME280;6560;57.692;11.958;2023-08-07T00:53:08;99470.09;;;29.57;100.00
12991;BME280;6560;57.692;11.958;2023-08-07T00:55:34;99466.59;;;29.90;100.00
12991;BME280;6560;57.692;11.958;2023-08-07T00:58:00;99421.31;;;29.51;100.00
12991;BME280;6560;57.692;11.958;2023-08-07T01:56:00;99308.22;;;30.84;100.00
12991;BME280;6560;57.692;11.958;2023-08-07T01:58:26;99259.13;;;30.25;100.00
12991;BME280;6560;57.692;11.958;2023-08-07T02:00:51;99240.25;;;30.52;100.00
12991;BME280;6560;57.692;11.958;2023-08-07T02:03:17;99286.00;;;30.36;100.00
12991;BME280;6560;57.692;11.958;2023-08-07T02:05:47;99268.31;;;29.50;100.00
12991;BME280;6560;57.692;11.958;2023-08-07T02:08:14;99123.63;;;29.08;100.00
12991;BME280;6560;57.692;11.958;2023-08-07T02:10:40;99211.41;;;29.46;100.00
12991;BME280;6560;57.692;11.958;2023-08-07T02:13:09;99281.69;;;30.91;100.00
12991;BME280;6560;57.692;11.958;2023-08-07T02:15:58;99260.50;;;31.84;100.00
12991;BME280;6560;57.692;11.958;2023-08-07T02:18:24;99152.53;;;30.99;100.00
12991;BME280;6560;57.692;11.958;2023-08-07T02:20:50;99184.34;;;31.79;100.00
12991;BME280;6560;57.692;11.958;2023-08-07T02:23:17;99240.69;;;32.55;99.74
12991;BME280;6560;57.692;11.958;2023-08-07T02:25:43;99208.50;;;32.88;96.74
12991;BME280;6560;57.692;11.958;2023-08-07T02:28:11;99223.13;;;31.07;100.00
12991;BME280;6560;57.692;11.958;2023-08-07T02:30:37;99205.53;;;30.29;100.00
12991;BME280;6560;57.692;11.958;2023-08-07T02:33:02;99198.78;;;31.56;100.00
12991;BME280;6560;57.692;11.958;2023-08-07T02:35:29;99197.88;;;31.30;100.00
12991;BME280;6560;57.692;11.958;2023-08-07T02:37:54;99159.09;;;31.48;100.00
12991;BME280;6560;57.692;11.958;2023-08-07T02:40:20;99184.75;;;31.93;100.00
12991;BME280;6560;57.692;11.958;2023-08-07T02:42:46;99189.03;;;32.25;99.30
12991;BME280;6560;57.692;11.958;2023-08-07T02:45:12;99172.09;;;31.91;99.66
12991;BME280;6560;57.692;11.958;2023-08-07T02:47:39;99141.19;;;31.14;99.75
12991;BME280;6560;57.692;11.958;2023-08-07T02:50:05;99159.03;;;30.95;100.00
12991;BME280;6560;57.692;11.958;2023-08-07T02:52:34;99150.28;;;30.85;100.00
12991;BME280;6560;57.692;11.958;2023-08-07T02:55:00;99150.72;;;31.27;100.00
12991;BME280;6560;57.692;11.958;2023-08-07T02:57:30;99152.94;;;31.43;100.00
12991;BME280;6560;57.692;11.958;2023-08-07T02:59:55;99083.06;;;30.87;100.00
12991;BME280;6560;57.692;11.958;2023-08-07T03:02:22;99120.97;;;30.94;100.00
12991;BME280;6560;57.692;11.958;2023-08-07T03:04:49;99080.38;;;31.14;100.00
12991;BME280;6560;57.692;11.958;2023-08-07T03:07:16;99097.19;;;31.26;100.00
12991;BME280;6560;57.692;11.958;2023-08-07T03:09:45;99107.16;;;31.52;100.00
12991;BME280;6560;57.692;11.958;2023-08-07T03:12:12;99130.28;;;30.86;100.00
12991;BME280;6560;57.692;11.958;2023-08-07T03:14:37;99125.66;;;30.90;100.00
12991;BME280;6560;57.692;11.958;2023-08-07T03:17:03;99083.31;;;31.08;100.00
12991;BME280;6560;57.692;11.958;2023-08-07T03:19:29;99000.66;;;30.00;100.00
12991;BME280;6560;57.692;11.958;2023-08-07T03:21:56;99121.69;;;31.53;100.00
12991;BME280;6560;57.692;11.958;2023-08-07T03:24:22;99111.66;;;30.45;100.00
12991;BME280;6560;57.692;11.958;2023-08-07T03:26:50;99119.88;;;31.27;100.00
12991;BME280;6560;57.692;11.958;2023-08-07T03:29:16;99082.50;;;30.78;100.00
12991;BME280;6560;57.692;11.958;2023-08-07T03:31:42;99103.59;;;30.71;100.00
12991;BME280;6560;57.692;11.958;2023-08-07T03:34:07;99094.88;;;30.60;100.00
12991;BME280;6560;57.692;11.958;2023-08-07T03:36:33;99048.00;;;30.52;100.00
12991;BME280;6560;57.692;11.958;2023-08-07T03:39:00;99090.03;;;30.40;100.00
12991;BME280;6560;57.692;11.958;2023-08-07T03:41:26;99081.72;;;29.86;100.00
12991;BME280;6560;57.692;11.958;2023-08-07T03:43:53;99102.38;;;30.23;100.00
12991;BME280;6560;57.692;11.958;2023-08-07T03:46:18;99091.94;;;30.38;100.00
12991;BME280;6560;57.692;11.958;2023-08-07T03:48:44;99114.75;;;30.90;100.00
12991;BME280;6560;57.692;11.958;2023-08-07T03:51:12;99089.38;;;30.62;100.00
12991;BME280;6560;57.692;11.958;2023-08-07T03:53:40;99092.81;;;30.95;100.00
12991;BME280;6560;57.692;11.958;2023-08-07T03:56:06;99027.44;;;30.42;100.00
12991;BME280;6560;57.692;11.958;2023-08-07T03:58:33;99076.91;;;30.82;100.00
12991;BME280;6560;57.692;11.958;2023-08-07T04:01:03;99074.69;;;30.67;100.00
12991;BME280;6560;57.692;11.958;2023-08-07T04:03:30;99044.34;;;30.79;100.00
12991;BME280;6560;57.692;11.958;2023-08-07T04:05:55;99082.72;;;31.24;100.00
12991;BME280;6560;57.692;11.958;2023-08-07T04:08:24;99064.47;;;31.28;100.00
12991;BME280;6560;57.692;11.958;2023-08-07T04:11:01;99088.31;;;30.94;100.00
12991;BME280;6560;57.692;11.958;2023-08-07T04:13:29;99077.66;;;30.60;100.00
12991;BME280;6560;57.692;11.958;2023-08-07T04:15:55;99041.22;;;30.65;100.00
12991;BME280;6560;57.692;11.958;2023-08-07T04:18:21;99041.63;;;31.06;100.00
12991;BME280;6560;57.692;11.958;2023-08-07T04:20:53;99035.97;;;31.12;100.00
12991;BME280;6560;57.692;11.958;2023-08-07T04:23:20;99045.88;;;31.39;100.00
12991;BME280;6560;57.692;11.958;2023-08-07T04:25:47;99025.09;;;31.12;100.00
12991;BME280;6560;57.692;11.958;2023-08-07T04:28:14;99019.63;;;31.12;100.00
12991;BME280;6560;57.692;11.958;2023-08-07T04:30:40;99033.88;;;31.20;100.00
12991;BME280;6560;57.692;11.958;2023-08-07T04:33:08;99018.34;;;30.97;100.00
12991;BME280;6560;57.692;11.958;2023-08-07T04:35:38;99023.56;;;31.03;100.00
12991;BME280;6560;57.692;11.958;2023-08-07T04:38:03;99014.94;;;31.17;100.00
12991;BME280;6560;57.692;11.958;2023-08-07T04:40:29;98989.06;;;31.04;100.00
12991;BME280;6560;57.692;11.958;2023-08-07T04:42:56;99023.00;;;31.20;100.00
12991;BME280;6560;57.692;11.958;2023-08-07T04:45:22;99018.09;;;31.54;100.00
12991;BME280;6560;57.692;11.958;2023-08-07T04:47:47;99023.22;;;31.14;100.00
12991;BME280;6560;57.692;11.958;2023-08-07T04:50:17;99009.44;;;31.43;100.00
12991;BME280;6560;57.692;11.958;2023-08-07T04:52:43;99003.00;;;31.21;100.00
12991;BME280;6560;57.692;11.958;2023-08-07T04:55:08;98999.66;;;31.62;100.00
12991;BME280;6560;57.692;11.958;2023-08-07T04:57:37;99022.28;;;31.88;100.00
12991;BME280;6560;57.692;11.958;2023-08-07T05:00:03;98992.25;;;31.66;100.00
12991;BME280;6560;57.692;11.958;2023-08-07T05:02:28;99022.59;;;31.80;100.00
12991;BME280;6560;57.692;11.958;2023-08-07T05:04:55;99012.16;;;31.68;100.00
12991;BME280;6560;57.692;11.958;2023-08-07T05:07:25;99026.69;;;31.69;100.00
12991;BME280;6560;57.692;11.958;2023-08-07T05:09:52;99021.00;;;31.50;100.00
12991;BME280;6560;57.692;11.958;2023-08-07T05:12:22;99009.53;;;31.65;100.00
12991;BME280;6560;57.692;11.958;2023-08-07T05:14:48;99001.78;;;31.78;100.00
12991;BME280;6560;57.692;11.958;2023-08-07T05:17:13;99001.13;;;31.71;100.00
12991;BME280;6560;57.692;11.958;2023-08-07T05:19:39;98922.91;;;31.50;100.00
12991;BME280;6560;57.692;11.958;2023-08-07T05:22:05;99002.44;;;32.08;100.00
12991;BME280;6560;57.692;11.958;2023-08-07T05:24:30;98955.13;;;31.63;100.00
12991;BME280;6560;57.692;11.958;2023-08-07T05:27:10;99004.50;;;32.01;100.00
12991;BME280;6560;57.692;11.958;2023-08-07T05:29:37;98980.88;;;31.78;100.00
12991;BME280;6560;57.692;11.958;2023-08-07T05:32:12;98994.09;;;32.11;100.00
12991;BME280;6560;57.692;11.958;2023-08-07T05:34:38;98984.38;;;31.82;100.00
12991;BME280;6560;57.692;11.958;2023-08-07T05:37:05;98983.44;;;31.58;100.00
12991;BME280;6560;57.692;11.958;2023-08-07T05:39:34;98987.50;;;31.71;100.00
12991;BME280;6560;57.692;11.958;2023-08-07T05:42:01;98997.16;;;32.26;100.00
12991;BME280;6560;57.692;11.958;2023-08-07T05:44:28;98990.13;;;31.74;100.00
12991;BME280;6560;57.692;11.958;2023-08-07T05:46:56;98967.06;;;31.83;100.00
12991;BME280;6560;57.692;11.958;2023-08-07T05:49:21;98964.75;;;31.72;100.00
12991;BME280;6560;57.692;11.958;2023-08-07T05:51:52;98945.41;;;32.01;100.00
12991;BME280;6560;57.692;11.958;2023-08-07T05:54:17;98981.53;;;32.30;100.00
12991;BME280;6560;57.692;11.958;2023-08-07T05:56:44;98980.19;;;32.18;100.00
12991;BME280;6560;57.692;11.958;2023-08-07T05:59:12;98984.03;;;32.13;100.00
12991;BME280;6560;57.692;11.958;2023-08-07T06:01:38;98984.78;;;32.39;99.79
12991;BME280;6560;57.692;11.958;2023-08-07T06:04:07;98992.59;;;32.27;100.00
12991;BME280;6560;57.692;11.958;2023-08-07T06:06:34;98973.81;;;32.19;100.00
12991;BME280;6560;57.692;11.958;2023-08-07T06:09:01;98950.97;;;31.98;100.00
12991;BME280;6560;57.692;11.958;2023-08-07T06:11:30;98941.16;;;31.94;100.00
12991;BME280;6560;57.692;11.958;2023-08-07T06:13:56;98968.06;;;31.80;100.00
12991;BME280;6560;57.692;11.958;2023-08-07T06:16:24;98911.78;;;31.79;100.00
12991;BME280;6560;57.692;11.958;2023-08-07T06:18:50;98944.97;;;32.12;100.00
12991;BME280;6560;57.692;11.958;2023-08-07T06:21:15;98904.25;;;32.08;100.00
12991;BME280;6560;57.692;11.958;2023-08-07T06:23:41;98896.31;;;32.45;98.36
12991;BME280;6560;57.692;11.958;2023-08-07T06:26:08;98940.81;;;32.47;100.00
12991;BME280;6560;57.692;11.958;2023-08-07T06:28:34;98934.09;;;32.34;100.00
12991;BME280;6560;57.692;11.958;2023-08-07T06:31:04;98906.81;;;32.56;100.00
12991;BME280;6560;57.692;11.958;2023-08-07T06:33:32;98868.72;;;31.65;100.00
12991;BME280;6560;57.692;11.958;2023-08-07T06:35:59;98915.28;;;32.04;100.00
12991;BME280;6560;57.692;11.958;2023-08-07T06:38:24;98871.53;;;31.86;100.00
12991;BME280;6560;57.692;11.958;2023-08-07T06:40:53;98923.63;;;32.23;100.00
12991;BME280;6560;57.692;11.958;2023-08-07T06:43:19;98920.34;;;32.79;100.00
12991;BME280;6560;57.692;11.958;2023-08-07T06:45:52;98922.00;;;32.61;100.00
12991;BME280;6560;57.692;11.958;2023-08-07T06:48:22;98903.41;;;32.71;100.00
12991;BME280;6560;57.692;11.958;2023-08-07T06:50:49;98885.88;;;32.76;100.00
12991;BME280;6560;57.692;11.958;2023-08-07T06:53:16;98895.91;;;32.76;100.00
12991;BME280;6560;57.692;11.958;2023-08-07T06:55:43;98905.13;;;32.73;100.00
12991;BME280;6560;57.692;11.958;2023-08-07T06:58:09;98848.94;;;32.48;100.00
12991;BME280;6560;57.692;11.958;2023-08-07T07:00:35;98848.31;;;32.61;100.00
12991;BME280;6560;57.692;11.958;2023-08-07T07:03:03;98830.25;;;32.79;100.00
12991;BME280;6560;57.692;11.958;2023-08-07T07:05:30;98816.56;;;32.80;100.00
12991;BME280;6560;57.692;11.958;2023-08-07T07:07:56;98872.09;;;33.20;100.00
12991;BME280;6560;57.692;11.958;2023-08-07T07:10:22;98830.81;;;33.26;100.00
12991;BME280;6560;57.692;11.958;2023-08-07T07:12:48;98856.03;;;32.92;100.00
12991;BME280;6560;57.692;11.958;2023-08-07T07:15:15;98858.50;;;32.78;100.00
12991;BME280;6560;57.692;11.958;2023-08-07T07:17:41;98824.41;;;32.68;100.00
12991;BME280;6560;57.692;11.958;2023-08-07T07:20:07;98840.03;;;33.03;100.00
12991;BME280;6560;57.692;11.958;2023-08-07T07:22:34;98831.41;;;32.94;100.00
12991;BME280;6560;57.692;11.958;2023-08-07T07:25:00;98856.91;;;33.33;100.00
12991;BME280;6560;57.692;11.958;2023-08-07T07:27:48;98856.13;;;32.70;100.00
12991;BME280;6560;57.692;11.958;2023-08-07T07:30:15;98806.53;;;32.19;100.00
12991;BME280;6560;57.692;11.958;2023-08-07T07:32:42;98771.91;;;32.21;100.00
12991;BME280;6560;57.692;11.958;2023-08-07T07:35:08;98850.78;;;33.08;100.00
12991;BME280;6560;57.692;11.958;2023-08-07T07:37:34;98802.63;;;33.05;99.27
12991;BME280;6560;57.692;11.958;2023-08-07T07:39:59;98822.09;;;33.55;97.59
12991;BME280;6560;57.692;11.958;2023-08-07T07:42:25;98814.72;;;33.57;96.84
12991;BME280;6560;57.692;11.958;2023-08-07T07:44:50;98841.00;;;33.41;97.28
12991;BME280;6560;57.692;11.958;2023-08-07T07:47:17;98783.72;;;33.40;96.56
12991;BME280;6560;57.692;11.958;2023-08-07T07:49:46;98842.28;;;33.53;97.43
12991;BME280;6560;57.692;11.958;2023-08-07T07:52:15;98807.34;;;33.41;96.82
12991;BME280;6560;57.692;11.958;2023-08-07T07:54:40;98836.34;;;33.62;96.51
12991;BME280;6560;57.692;11.958;2023-08-07T07:57:07;98819.22;;;33.58;96.11
12991;BME280;6560;57.692;11.958;2023-08-07T07:59:33;98767.81;;;33.48;95.10
12991;BME280;6560;57.692;11.958;2023-08-07T08:01:59;98827.94;;;33.85;94.77
12991;BME280;6560;57.692;11.958;2023-08-07T08:04:31;98809.88;;;34.00;94.87
12991;BME280;6560;57.692;11.958;2023-08-07T08:06:56;98824.41;;;34.00;94.63
12991;BME280;6560;57.692;11.958;2023-08-07T08:09:22;98783.94;;;34.43;91.63
12991;BME280;6560;57.692;11.958;2023-08-07T08:11:48;98829.97;;;34.87;90.23
12991;BME280;6560;57.692;11.958;2023-08-07T08:14:13;98824.66;;;34.66;90.83
12991;BME280;6560;57.692;11.958;2023-08-07T08:16:39;98832.28;;;35.60;83.78
12991;BME280;6560;57.692;11.958;2023-08-07T08:19:05;98828.13;;;34.70;88.73
12991;BME280;6560;57.692;11.958;2023-08-07T08:21:32;98846.97;;;34.24;88.99
12991;BME280;6560;57.692;11.958;2023-08-07T08:24:04;98843.38;;;35.26;87.05
12991;BME280;6560;57.692;11.958;2023-08-07T08:26:29;98811.00;;;34.32;88.97
12991;BME280;6560;57.692;11.958;2023-08-07T08:28:56;98831.44;;;34.76;88.98
12991;BME280;6560;57.692;11.958;2023-08-07T08:31:22;98786.31;;;33.97;89.52
12991;BME280;6560;57.692;11.958;2023-08-07T08:33:50;98828.31;;;34.14;91.43
12991;BME280;6560;57.692;11.958;2023-08-07T08:36:16;98818.34;;;33.58;93.54
12991;BME280;6560;57.692;11.958;2023-08-07T08:38:43;98835.66;;;33.94;93.14
12991;BME280;6560;57.692;11.958;2023-08-07T08:41:12;98787.00;;;33.65;93.40
12991;BME280;6560;57.692;11.958;2023-08-07T08:43:40;98842.56;;;33.84;93.76
12991;BME280;6560;57.692;11.958;2023-08-07T08:46:14;98840.03;;;33.98;93.44
12991;BME280;6560;57.692;11.958;2023-08-07T08:48:41;98826.91;;;33.50;95.35
12991;BME280;6560;57.692;11.958;2023-08-07T08:51:12;98822.00;;;33.94;95.11
12991;BME280;6560;57.692;11.958;2023-08-07T08:53:39;98807.78;;;34.58;91.71
12991;BME280;6560;57.692;11.958;2023-08-07T08:56:06;98816.94;;;33.87;94.37
12991;BME280;6560;57.692;11.958;2023-08-07T08:58:32;98806.06;;;33.67;95.26
12991;BME280;6560;57.692;11.958;2023-08-07T09:00:58;98767.22;;;33.96;94.09
12991;BME280;6560;57.692;11.958;2023-08-07T09:03:24;98779.22;;;33.39;98.37
12991;BME280;6560;57.692;11.958;2023-08-07T09:05:53;98791.84;;;33.96;97.10
12991;BME280;6560;57.692;11.958;2023-08-07T09:08:26;98778.03;;;33.99;95.52
12991;BME280;6560;57.692;11.958;2023-08-07T09:10:53;98816.78;;;34.43;96.08
12991;BME280;6560;57.692;11.958;2023-08-07T09:13:23;98805.69;;;34.10;96.73
12991;BME280;6560;57.692;11.958;2023-08-07T09:15:50;98797.75;;;34.06;96.35
12991;BME280;6560;57.692;11.958;2023-08-07T09:18:16;98744.06;;;34.03;95.07
12991;BME280;6560;57.692;11.958;2023-08-07T09:20:42;98755.31;;;34.33;100.00
12991;BME280;6560;57.692;11.958;2023-08-07T09:23:08;98747.31;;;34.96;95.80
12991;BME280;6560;57.692;11.958;2023-08-07T09:25:34;98779.56;;;34.73;98.27
12991;BME280;6560;57.692;11.958;2023-08-07T09:28:05;98752.72;;;34.30;99.68
12991;BME280;6560;57.692;11.958;2023-08-07T09:30:34;98761.00;;;34.46;100.00
12991;BME280;6560;57.692;11.958;2023-08-07T09:33:02;98770.78;;;33.98;100.00
12991;BME280;6560;57.692;11.958;2023-08-07T09:35:30;98724.94;;;33.86;100.00
12991;BME280;6560;57.692;11.958;2023-08-07T09:38:00;98717.72;;;33.66;100.00
12991;BME280;6560;57.692;11.958;2023-08-07T09:40:26;98769.91;;;34.15;100.00
12991;BME280;6560;57.692;11.958;2023-08-07T09:42:53;98804.72;;;34.30;100.00
12991;BME280;6560;57.692;11.958;2023-08-07T09:45:23;98770.78;;;34.15;100.00
12991;BME280;6560;57.692;11.958;2023-08-07T09:48:08;98783.31;;;34.38;100.00
12991;BME280;6560;57.692;11.958;2023-08-07T09:50:36;98749.56;;;34.37;100.00
12991;BME280;6560;57.692;11.958;2023-08-07T09:53:02;98713.75;;;34.42;100.00
12991;BME280;6560;57.692;11.958;2023-08-07T09:55:27;98711.47;;;34.50;100.00
12991;BME280;6560;57.692;11.958;2023-08-07T09:57:53;98773.41;;;34.53;100.00
12991;BME280;6560;57.692;11.958;2023-08-07T10:00:21;98727.44;;;34.42;100.00
12991;BME280;6560;57.692;11.958;2023-08-07T10:02:50;98686.88;;;34.16;100.00
12991;BME280;6560;57.692;11.958;2023-08-07T10:05:16;98746.31;;;34.64;100.00
12991;BME280;6560;57.692;11.958;2023-08-07T10:07:44;98714.91;;;34.54;99.95
12991;BME280;6560;57.692;11.958;2023-08-07T10:10:12;98749.00;;;34.48;100.00
12991;BME280;6560;57.692;11.958;2023-08-07T10:12:38;98730.06;;;34.09;100.00
12991;BME280;6560;57.692;11.958;2023-08-07T10:15:04;98759.56;;;34.38;100.00
12991;BME280;6560;57.692;11.958;2023-08-07T10:17:32;98706.47;;;34.25;100.00
12991;BME280;6560;57.692;11.958;2023-08-07T10:20:20;98720.19;;;34.41;99.05
12991;BME280;6560;57.692;11.958;2023-08-07T10:22:47;98705.31;;;34.29;99.49
12991;BME280;6560;57.692;11.958;2023-08-07T10:25:13;98704.09;;;34.35;99.36
12991;BME280;6560;57.692;11.958;2023-08-07T10:27:42;98736.03;;;34.52;99.40
12991;BME280;6560;57.692;11.958;2023-08-07T10:30:11;98735.91;;;34.70;98.84
12991;BME280;6560;57.692;11.958;2023-08-07T10:32:42;98741.41;;;34.53;98.99
12991;BME280;6560;57.692;11.958;2023-08-07T10:35:08;98735.16;;;34.51;99.64
12991;BME280;6560;57.692;11.958;2023-08-07T10:37:41;98731.59;;;34.49;98.67
12991;BME280;6560;57.692;11.958;2023-08-07T10:40:12;98722.13;;;34.39;99.01
12991;BME280;6560;57.692;11.958;2023-08-07T10:45:34;98717.03;;;34.14;99.89
12991;BME280;6560;57.692;11.958;2023-08-07T10:48:11;98721.63;;;34.14;100.00
12991;BME280;6560;57.692;11.958;2023-08-07T10:55:54;98725.16;;;34.16;100.00
12991;BME280;6560;57.692;11.958;2023-08-07T10:58:24;98719.31;;;34.23;100.00
12991;BME280;6560;57.692;11.958;2023-08-07T11:01:18;98742.00;;;34.43;100.00
12991;BME280;6560;57.692;11.958;2023-08-07T11:03:52;98739.09;;;34.28;100.00
12991;BME280;6560;57.692;11.958;2023-08-07T11:06:26;98717.41;;;34.75;97.42
12991;BME280;6560;57.692;11.958;2023-08-07T11:08:52;98751.41;;;34.71;100.00
12991;BME280;6560;57.692;11.958;2023-08-07T11:11:18;98707.31;;;34.43;100.00
12991;BME280;6560;57.692;11.958;2023-08-07T11:13:44;98692.13;;;34.53;100.00
12991;BME280;6560;57.692;11.958;2023-08-07T11:16:12;98702.31;;;34.84;99.69
12991;BME280;6560;57.692;11.958;2023-08-07T11:18:39;98729.91;;;35.12;99.11
12991;BME280;6560;57.692;11.958;2023-08-07T11:21:10;98734.25;;;35.16;100.00
12991;BME280;6560;57.692;11.958;2023-08-07T11:23:38;98709.78;;;34.98;100.00
12991;BME280;6560;57.692;11.958;2023-08-07T11:26:09;98722.53;;;34.82;100.00
12991;BME280;6560;57.692;11.958;2023-08-07T11:28:35;98740.13;;;35.26;100.00
12991;BME280;6560;57.692;11.958;2023-08-07T11:31:01;98676.16;;;34.46;99.97
12991;BME280;6560;57.692;11.958;2023-08-07T11:33:28;98719.00;;;34.79;100.00
12991;BME280;6560;57.692;11.958;2023-08-07T11:35:54;98690.75;;;34.95;100.00
12991;BME280;6560;57.692;11.958;2023-08-07T11:38:30;98722.34;;;35.33;100.00
12991;BME280;6560;57.692;11.958;2023-08-07T11:41:00;98709.19;;;35.24;98.83
12991;BME280;6560;57.692;11.958;2023-08-07T11:43:27;98713.59;;;35.42;99.86
12991;BME280;6560;57.692;11.958;2023-08-07T11:45:54;98668.97;;;35.25;99.12
12991;BME280;6560;57.692;11.958;2023-08-07T11:48:23;98703.06;;;35.82;97.65
12991;BME280;6560;57.692;11.958;2023-08-07T11:50:50;98715.69;;;35.84;98.44
12991;BME280;6560;57.692;11.958;2023-08-07T11:53:15;98681.72;;;35.87;97.83
12991;BME280;6560;57.692;11.958;2023-08-07T11:55:51;98678.28;;;35.97;97.03
12991;BME280;6560;57.692;11.958;2023-08-07T11:58:17;98697.13;;;36.19;96.25
12991;BME280;6560;57.692;11.958;2023-08-07T12:00:44;98713.19;;;36.25;96.42
12991;BME280;6560;57.692;11.958;2023-08-07T12:03:31;98708.22;;;36.32;96.77
12991;BME280;6560;57.692;11.958;2023-08-07T12:05:59;98694.19;;;36.22;96.09
12991;BME280;6560;57.692;11.958;2023-08-07T12:08:39;98712.94;;;36.30;95.91
12991;BME280;6560;57.692;11.958;2023-08-07T12:11:10;98687.63;;;36.25;95.18
12991;BME280;6560;57.692;11.958;2023-08-07T12:13:40;98690.81;;;36.17;95.85
12991;BME280;6560;57.692;11.958;2023-08-07T12:16:06;98691.47;;;36.07;96.71
12991;BME280;6560;57.692;11.958;2023-08-07T12:18:33;98649.53;;;35.75;97.49
12991;BME280;6560;57.692;11.958;2023-08-07T12:21:04;98691.38;;;35.78;98.37
12991;BME280;6560;57.692;11.958;2023-08-07T12:23:33;98650.34;;;35.61;99.03
12991;BME280;6560;57.692;11.958;2023-08-07T12:26:00;98686.22;;;35.88;98.65
12991;BME280;6560;57.692;11.958;2023-08-07T12:28:26;98673.06;;;36.09;97.02
12991;BME280;6560;57.692;11.958;2023-08-07T12:30:54;98644.88;;;35.91;97.16
12991;BME280;6560;57.692;11.958;2023-08-07T12:33:20;98670.81;;;36.15;96.92
12991;BME280;6560;57.692;11.958;2023-08-07T12:35:48;98678.25;;;36.13;97.45
12991;BME280;6560;57.692;11.958;2023-08-07T12:38:14;98674.28;;;35.89;98.01
12991;BME280;6560;57.692;11.958;2023-08-07T12:40:40;98679.16;;;35.84;98.38
12991;BME280;6560;57.692;11.958;2023-08-07T12:43:06;98672.38;;;35.75;95.94
12991;BME280;6560;57.692;11.958;2023-08-07T12:45:33;98677.06;;;36.47;95.53
12991;BME280;6560;57.692;11.958;2023-08-07T12:47:59;98673.13;;;36.23;95.40
12991;BME280;6560;57.692;11.958;2023-08-07T12:50:25;98662.97;;;36.09;96.94
12991;BME280;6560;57.692;11.958;2023-08-07T12:52:51;98683.81;;;36.42;96.40
12991;BME280;6560;57.692;11.958;2023-08-07T12:55:16;98659.31;;;36.39;95.75
12991;BME280;6560;57.692;11.958;2023-08-07T12:57:44;98669.78;;;37.03;93.97
12991;BME280;6560;57.692;11.958;2023-08-07T13:00:11;98675.66;;;36.26;96.88
12991;BME280;6560;57.692;11.958;2023-08-07T13:02:47;98647.97;;;36.73;95.62
12991;BME280;6560;57.692;11.958;2023-08-07T13:05:16;98644.97;;;36.19;97.16
12991;BME280;6560;57.692;11.958;2023-08-07T13:07:45;98594.03;;;36.29;95.39
12991;BME280;6560;57.692;11.958;2023-08-07T13:10:16;98634.72;;;37.62;92.49
12991;BME280;6560;57.692;11.958;2023-08-07T13:13:20;98616.66;;;37.58;89.75
12991;BME280;6560;57.692;11.958;2023-08-07T13:15:47;98633.38;;;37.28;91.30
12991;BME280;6560;57.692;11.958;2023-08-07T13:18:13;98618.72;;;36.86;92.10
12991;BME280;6560;57.692;11.958;2023-08-07T13:20:41;98558.84;;;36.22;93.62
12991;BME280;6560;57.692;11.958;2023-08-07T13:23:07;98567.16;;;36.34;94.53
12991;BME280;6560;57.692;11.958;2023-08-07T13:25:34;98550.28;;;36.69;92.18
12991;BME280;6560;57.692;11.958;2023-08-07T13:28:02;98605.47;;;36.50;93.25
12991;BME280;6560;57.692;11.958;2023-08-07T13:30:34;98602.41;;;36.83;91.54
12991;BME280;6560;57.692;11.958;2023-08-07T13:33:00;98534.06;;;37.05;90.03
12991;BME280;6560;57.692;11.958;2023-08-07T13:35:25;98606.03;;;36.98;91.54
12991;BME280;6560;57.692;11.958;2023-08-07T13:37:52;98583.53;;;36.36;94.74
12991;BME280;6560;57.692;11.958;2023-08-07T13:40:23;98627.13;;;36.97;92.65
12991;BME280;6560;57.692;11.958;2023-08-07T13:42:50;98635.75;;;37.05;91.47
12991;BME280;6560;57.692;11.958;2023-08-07T13:45:23;98621.25;;;36.89;91.40
12991;BME280;6560;57.692;11.958;2023-08-07T13:47:49;98626.56;;;36.78;91.73
12991;BME280;6560;57.692;11.958;2023-08-07T13:50:14;98601.97;;;36.34;92.07
12991;BME280;6560;57.692;11.958;2023-08-07T13:52:41;98616.47;;;36.79;90.35
12991;BME280;6560;57.692;11.958;2023-08-07T13:55:11;98632.34;;;36.59;90.54
12991;BME280;6560;57.692;11.958;2023-08-07T13:57:36;98619.88;;;36.25;91.80
12991;BME280;6560;57.692;11.958;2023-08-07T14:00:03;98629.09;;;36.39;90.94
12991;BME280;6560;57.692;11.958;2023-08-07T14:02:48;98593.09;;;36.57;91.12